Time;durP1;ratioP1;P1;durP2;ratioP2;P2;SDS_P1;SDS_P2;PMS_P1;PMS_P2;Temp;Humidity;BMP_temperature;BMP_pressure;BME280_temperature;BME280_humidity;BME280_pressure;Samples;Min_cycle;Max_cycle;Signal;HPM_P1;HPM_P2
2023/04/21 00:00:44;;;;;;;11.10;1.95;;;22.80;56.80;;;;;;4839396;29;20037;-74
2023/04/21 00:03:10;;;;;;;7.75;1.60;;;23.00;56.70;;;;;;4842106;29;20057;-74
2023/04/21 00:05:37;;;;;;;7.15;1.58;;;22.80;56.90;;;;;;4842144;29;20030;-74
2023/04/21 00:08:03;;;;;;;6.50;1.38;;;22.90;56.90;;;;;;4843424;29;20058;-74
2023/04/21 00:10:29;;;;;;;9.02;2.05;;;23.10;56.50;;;;;;4841712;29;20403;-75
2023/04/21 00:12:55;;;;;;;5.38;1.60;;;23.00;56.30;;;;;;4840619;29;20487;-74
2023/04/21 00:15:21;;;;;;;5.50;1.70;;;23.00;56.70;;;;;;4839901;29;20086;-74
2023/04/21 00:17:47;;;;;;;7.60;1.30;;;23.00;56.80;;;;;;4842401;29;20049;-74
2023/04/21 00:20:14;;;;;;;8.43;2.03;;;23.00;56.90;;;;;;4830059;29;20095;-74
2023/04/21 00:22:40;;;;;;;4.22;1.70;;;23.10;56.80;;;;;;4837462;29;20049;-75
2023/04/21 00:25:06;;;;;;;9.00;2.20;;;23.10;56.90;;;;;;4839765;29;20045;-74
2023/04/21 00:27:32;;;;;;;15.27;2.05;;;23.10;56.70;;;;;;4841206;29;20050;-75
2023/04/21 00:29:58;;;;;;;6.82;1.67;;;23.20;56.70;;;;;;4839920;29;20135;-74
2023/04/21 00:32:24;;;;;;;8.10;1.85;;;23.20;56.70;;;;;;4840133;29;20128;-74
2023/04/21 00:34:50;;;;;;;7.78;2.40;;;23.10;56.70;;;;;;4841106;29;20038;-74
2023/04/21 00:37:17;;;;;;;8.20;1.65;;;23.10;56.80;;;;;;4839976;29;20046;-75
2023/04/21 00:39:43;;;;;;;7.55;2.10;;;23.20;56.40;;;;;;4841487;29;20064;-74
2023/04/21 00:42:09;;;;;;;8.48;1.92;;;23.10;56.70;;;;;;4832643;29;20061;-75
2023/04/21 00:44:35;;;;;;;12.07;2.15;;;23.20;56.30;;;;;;4841527;29;20455;-75
2023/04/21 00:47:02;;;;;;;3.35;1.75;;;23.30;55.90;;;;;;4854456;29;20044;-75
2023/04/21 00:49:29;;;;;;;11.85;1.88;;;23.20;56.60;;;;;;4858918;29;20106;-74
2023/04/21 00:51:55;;;;;;;6.25;2.50;;;23.20;56.70;;;;;;4859020;29;20053;-74
2023/04/21 00:54:24;;;;;;;5.97;1.75;;;23.20;56.60;;;;;;4842580;29;20065;-75
2023/04/21 00:56:51;;;;;;;6.60;1.73;;;23.30;56.80;;;;;;4841149;29;20034;-75
2023/04/21 00:59:17;;;;;;;6.40;2.30;;;23.30;56.70;;;;;;4838431;29;20037;-75
2023/04/21 01:01:43;;;;;;;5.35;2.45;;;23.20;56.70;;;;;;4840996;29;20471;-74
2023/04/21 01:04:09;;;;;;;10.50;1.88;;;23.30;56.20;;;;;;4841398;29;20120;-75
2023/04/21 01:06:36;;;;;;;7.32;1.90;;;23.20;56.50;;;;;;4824777;29;20030;-74
2023/04/21 01:09:05;;;;;;;10.90;2.60;;;23.20;56.30;;;;;;4840359;29;20054;-74
2023/04/21 01:11:32;;;;;;;14.20;2.50;;;23.10;56.60;;;;;;4840775;29;20595;-74
2023/04/21 01:13:59;;;;;;;12.60;2.47;;;23.20;56.80;;;;;;4837310;29;20115;-74
2023/04/21 01:16:26;;;;;;;8.70;1.90;;;23.20;56.60;;;;;;4839040;29;20518;-75
2023/04/21 01:18:54;;;;;;;14.50;2.72;;;23.20;56.60;;;;;;4839377;29;20431;-74
2023/04/21 01:21:20;;;;;;;6.78;2.35;;;23.20;56.80;;;;;;4825086;29;20053;-74
2023/04/21 01:23:46;;;;;;;5.32;1.73;;;23.10;56.80;;;;;;4839752;29;20420;-74
2023/04/21 01:26:12;;;;;;;6.97;1.58;;;23.10;56.60;;;;;;4837583;29;20447;-74
2023/04/21 01:28:38;;;;;;;10.57;2.28;;;23.10;56.50;;;;;;4840218;29;20045;-75
2023/04/21 01:31:05;;;;;;;9.30;2.95;;;23.10;56.90;;;;;;4838893;29;20026;-74
2023/04/21 01:33:31;;;;;;;11.13;2.20;;;23.10;56.70;;;;;;4840074;29;20053;-74
2023/04/21 01:36:00;;;;;;;10.02;2.05;;;23.20;57.20;;;;;;4824505;29;20046;-75
2023/04/21 01:38:26;;;;;;;14.18;2.03;;;23.20;56.30;;;;;;4839053;29;20038;-74
2023/04/21 01:40:54;;;;;;;12.52;2.10;;;23.20;56.90;;;;;;4830561;29;20122;-74
2023/04/21 01:43:23;;;;;;;7.40;1.92;;;23.30;55.80;;;;;;4838947;29;20049;-74
2023/04/21 01:45:49;;;;;;;15.40;2.55;;;23.30;56.80;;;;;;4838431;29;20041;-75
2023/04/21 01:48:15;;;;;;;5.07;2.05;;;23.30;56.80;;;;;;4840056;29;20075;-75
2023/04/21 01:50:41;;;;;;;7.22;1.98;;;23.20;56.10;;;;;;4840261;29;20058;-74
2023/04/21 01:53:09;;;;;;;11.57;2.20;;;23.20;56.70;;;;;;4837375;29;20045;-75
2023/04/21 01:55:35;;;;;;;7.03;2.58;;;23.30;56.20;;;;;;4819185;29;20277;-74
2023/04/21 01:58:01;;;;;;;8.77;2.00;;;23.20;56.20;;;;;;4820349;29;20049;-74
2023/04/21 02:00:29;;;;;;;7.38;2.20;;;23.20;56.70;;;;;;4818339;29;20495;-74
2023/04/21 02:02:56;;;;;;;12.55;2.60;;;23.40;56.60;;;;;;4805170;29;20052;-75
2023/04/21 02:05:22;;;;;;;11.68;2.97;;;23.20;56.00;;;;;;4821094;29;20606;-74
2023/04/21 02:07:48;;;;;;;12.55;2.25;;;23.20;56.40;;;;;;4820099;29;20062;-75
2023/04/21 02:10:15;;;;;;;8.68;2.55;;;23.20;55.50;;;;;;4815910;29;20130;-74
2023/04/21 02:12:43;;;;;;;8.63;2.50;;;23.20;56.50;;;;;;4802071;29;20074;-74
2023/04/21 02:15:09;;;;;;;4.80;2.38;;;23.20;56.20;;;;;;4785730;29;20057;-74
2023/04/21 02:17:35;;;;;;;9.85;1.98;;;23.10;56.70;;;;;;4801702;29;20054;-74
2023/04/21 02:20:03;;;;;;;7.50;2.83;;;23.30;56.60;;;;;;4801441;29;20587;-75
2023/04/21 02:22:29;;;;;;;9.82;1.92;;;23.00;55.90;;;;;;4802157;29;20075;-74
2023/04/21 02:24:55;;;;;;;4.25;2.15;;;23.00;56.40;;;;;;4801521;29;20077;-74
2023/04/21 02:27:21;;;;;;;8.45;2.05;;;23.00;56.70;;;;;;4789919;29;20050;-74
2023/04/21 02:29:47;;;;;;;3.88;1.92;;;23.00;56.80;;;;;;4819701;29;20070;-74
2023/04/21 02:32:13;;;;;;;8.52;2.10;;;23.00;57.10;;;;;;4819328;29;20133;-74
2023/04/21 02:34:40;;;;;;;7.80;2.28;;;23.00;56.70;;;;;;4805245;29;20042;-76
2023/04/21 02:37:07;;;;;;;3.35;1.55;;;23.10;56.50;;;;;;4819711;29;20042;-74
2023/04/21 02:39:33;;;;;;;4.45;1.95;;;23.10;56.40;;;;;;4820247;29;20046;-74
2023/04/21 02:41:59;;;;;;;4.85;1.38;;;23.20;57.00;;;;;;4798675;29;20489;-75
2023/04/21 02:44:26;;;;;;;7.95;2.30;;;23.10;56.80;;;;;;4804102;29;20042;-74
2023/04/21 02:46:52;;;;;;;7.72;2.47;;;23.10;56.20;;;;;;4804183;29;20181;-74
2023/04/21 02:49:19;;;;;;;10.80;2.95;;;23.20;56.80;;;;;;4820435;29;21120;-74
2023/04/21 02:51:45;;;;;;;9.27;2.13;;;23.20;56.10;;;;;;4825739;29;20110;-74
2023/04/21 02:54:11;;;;;;;11.45;2.28;;;23.20;56.00;;;;;;4840328;29;20080;-75
2023/04/21 02:56:37;;;;;;;4.80;1.85;;;23.20;56.40;;;;;;4843665;29;20030;-75
2023/04/21 02:59:03;;;;;;;12.13;3.22;;;23.10;56.90;;;;;;4842175;29;20046;-75
2023/04/21 03:01:29;;;;;;;3.90;1.90;;;23.20;56.40;;;;;;4838993;29;20031;-74
2023/04/21 03:03:55;;;;;;;19.33;2.45;;;23.10;56.50;;;;;;4839534;29;20034;-75
2023/04/21 03:06:21;;;;;;;8.18;2.50;;;23.10;56.70;;;;;;4835464;29;20034;-75
2023/04/21 03:08:47;;;;;;;12.73;2.67;;;23.10;55.50;;;;;;4841545;29;20470;-74
2023/04/21 03:11:13;;;;;;;7.97;2.47;;;23.10;56.50;;;;;;4843647;29;20101;-74
2023/04/21 03:13:39;;;;;;;6.43;2.38;;;23.00;56.80;;;;;;4842283;29;20050;-74
2023/04/21 03:16:06;;;;;;;13.23;2.35;;;23.00;56.90;;;;;;4840507;29;20069;-74
2023/04/21 03:18:35;;;;;;;3.65;2.08;;;23.00;57.10;;;;;;4843305;29;20026;-75
2023/04/21 03:21:01;;;;;;;9.80;2.67;;;23.00;57.20;;;;;;4842392;29;20045;-75
2023/04/21 03:23:27;;;;;;;6.55;2.00;;;23.00;57.40;;;;;;4840625;29;20045;-74
2023/04/21 03:25:53;;;;;;;7.85;2.03;;;23.00;57.30;;;;;;4841675;29;20077;-75
2023/04/21 03:28:19;;;;;;;4.47;1.85;;;22.80;57.00;;;;;;4827162;29;20133;-74
2023/04/21 03:30:45;;;;;;;8.90;1.88;;;22.90;56.90;;;;;;4841332;29;20026;-75
2023/04/21 03:33:11;;;;;;;9.98;2.53;;;22.90;56.70;;;;;;4841797;29;20570;-74
2023/04/21 03:35:37;;;;;;;5.22;1.80;;;23.00;56.70;;;;;;4831719;29;20034;-74
2023/04/21 03:38:03;;;;;;;6.55;2.05;;;23.00;57.50;;;;;;4843160;29;20049;-75
2023/04/21 03:40:29;;;;;;;9.18;2.90;;;23.10;57.50;;;;;;4810355;29;20037;-75
2023/04/21 03:42:55;;;;;;;10.52;2.70;;;23.00;56.20;;;;;;4840351;29;20120;-74
2023/04/21 03:45:22;;;;;;;4.88;2.40;;;23.00;56.90;;;;;;4840700;29;20095;-74
2023/04/21 03:47:53;;;;;;;5.40;1.88;;;22.90;56.30;;;;;;4842028;29;20053;-74
2023/04/21 03:50:19;;;;;;;7.20;2.00;;;22.80;57.60;;;;;;4840799;29;20036;-74
2023/04/21 03:52:45;;;;;;;6.97;2.05;;;22.90;57.50;;;;;;4839859;29;20042;-74
2023/04/21 03:55:11;;;;;;;6.78;2.28;;;22.90;57.50;;;;;;4842495;29;20034;-74
2023/04/21 03:57:40;;;;;;;6.15;2.47;;;22.70;56.90;;;;;;4843203;29;20030;-75
2023/04/21 04:00:09;;;;;;;4.22;2.47;;;22.70;58.10;;;;;;4839571;29;20104;-74
2023/04/21 04:02:39;;;;;;;4.68;2.22;;;22.70;57.80;;;;;;4841364;29;20144;-74
2023/04/21 04:05:07;;;;;;;7.70;2.70;;;22.70;58.40;;;;;;4825458;29;20046;-74
2023/04/21 04:07:33;;;;;;;9.32;2.20;;;22.80;58.50;;;;;;4842657;29;20476;-74
2023/04/21 04:10:00;;;;;;;10.23;2.75;;;22.90;58.10;;;;;;4837015;29;20145;-74
2023/04/21 04:12:26;;;;;;;7.60;2.47;;;22.90;58.10;;;;;;4840924;29;20080;-74
2023/04/21 04:14:52;;;;;;;10.18;3.13;;;22.90;58.00;;;;;;4841922;29;20091;-74
2023/04/21 04:17:18;;;;;;;8.82;3.30;;;22.90;58.20;;;;;;4840783;29;20038;-75
2023/04/21 04:19:44;;;;;;;8.40;2.55;;;22.80;57.80;;;;;;4841142;29;20117;-74
2023/04/21 04:22:10;;;;;;;8.80;2.30;;;22.80;58.10;;;;;;4842151;29;20562;-75
2023/04/21 04:24:36;;;;;;;6.47;2.38;;;22.80;58.20;;;;;;4824225;29;20094;-74
2023/04/21 04:27:02;;;;;;;8.38;2.80;;;22.70;58.90;;;;;;4839727;29;20048;-75
2023/04/21 04:29:29;;;;;;;15.63;3.00;;;22.80;58.10;;;;;;4835768;29;20050;-74
2023/04/21 04:31:56;;;;;;;11.90;2.10;;;22.80;58.20;;;;;;4839733;29;20376;-74
2023/04/21 04:34:22;;;;;;;5.15;1.85;;;22.80;58.50;;;;;;4842110;29;20046;-76
2023/04/21 04:36:52;;;;;;;7.03;2.03;;;22.70;58.40;;;;;;4842365;29;20037;-74
2023/04/21 04:39:18;;;;;;;17.85;2.70;;;22.70;58.80;;;;;;4838649;29;20046;-76
2023/04/21 04:41:45;;;;;;;10.45;2.15;;;22.80;58.20;;;;;;4842647;29;20085;-74
2023/04/21 04:44:14;;;;;;;5.75;2.40;;;22.60;57.20;;;;;;4840637;29;20061;-74
2023/04/21 04:46:40;;;;;;;3.00;2.08;;;22.70;58.40;;;;;;4840693;29;20479;-74
2023/04/21 04:49:06;;;;;;;8.20;1.90;;;22.60;58.30;;;;;;4840963;29;20423;-74
2023/04/21 04:51:32;;;;;;;9.68;2.80;;;22.60;58.00;;;;;;4840751;29;20067;-74
2023/04/21 04:53:58;;;;;;;5.53;1.83;;;22.70;58.20;;;;;;4841085;29;20044;-74
2023/04/21 04:56:24;;;;;;;5.38;2.30;;;22.70;58.00;;;;;;4839661;29;20090;-74
2023/04/21 04:58:50;;;;;;;11.00;2.33;;;22.60;58.10;;;;;;4838499;29;20057;-74
2023/04/21 05:01:16;;;;;;;12.00;2.60;;;22.70;58.30;;;;;;4837063;29;20050;-74
2023/04/21 05:03:44;;;;;;;4.00;2.28;;;22.70;58.40;;;;;;4838732;29;20526;-74
2023/04/21 05:06:12;;;;;;;7.63;1.95;;;22.80;58.20;;;;;;4823769;29;20038;-74
2023/04/21 05:08:40;;;;;;;7.32;2.13;;;22.70;58.40;;;;;;4836812;29;20434;-74
2023/04/21 05:11:06;;;;;;;8.80;2.17;;;22.70;58.50;;;;;;4821850;29;20123;-75
2023/04/21 05:13:33;;;;;;;7.18;2.10;;;22.70;58.50;;;;;;4838616;29;20060;-75
2023/04/21 05:16:01;;;;;;;11.40;3.17;;;22.70;58.60;;;;;;4837165;29;20049;-74
2023/04/21 05:18:27;;;;;;;9.48;2.20;;;22.70;58.50;;;;;;4838585;29;20046;-74
2023/04/21 05:20:53;;;;;;;5.63;2.28;;;22.70;58.60;;;;;;4821274;29;20057;-74
2023/04/21 05:23:19;;;;;;;5.72;2.15;;;22.60;58.60;;;;;;4837451;29;20042;-75
2023/04/21 05:25:46;;;;;;;6.20;2.40;;;22.60;58.40;;;;;;4831447;29;20119;-75
2023/04/21 05:28:13;;;;;;;4.28;2.45;;;22.70;58.10;;;;;;4820912;29;20053;-74
2023/04/21 05:30:39;;;;;;;7.53;2.50;;;22.80;58.40;;;;;;4834292;29;20038;-75
2023/04/21 05:33:05;;;;;;;8.35;2.67;;;22.70;58.40;;;;;;4840159;29;20500;-74
2023/04/21 05:35:32;;;;;;;16.50;3.42;;;22.90;58.40;;;;;;4836417;29;20110;-75
2023/04/21 05:37:58;;;;;;;9.88;3.08;;;22.70;58.30;;;;;;4823161;29;20045;-75
2023/04/21 05:40:24;;;;;;;9.93;3.13;;;22.80;58.30;;;;;;4837453;29;20030;-74
2023/04/21 05:42:50;;;;;;;6.93;2.33;;;22.80;58.10;;;;;;4841012;29;20439;-75
2023/04/21 05:45:16;;;;;;;8.73;2.50;;;22.80;58.10;;;;;;4823411;29;20038;-74
2023/04/21 05:47:42;;;;;;;18.67;2.50;;;22.70;58.30;;;;;;4838463;29;20034;-75
2023/04/21 05:50:09;;;;;;;7.50;2.65;;;22.80;58.40;;;;;;4847538;29;20033;-74
2023/04/21 05:52:36;;;;;;;7.22;2.25;;;22.70;58.20;;;;;;4837237;29;20490;-75
2023/04/21 05:55:02;;;;;;;6.90;2.25;;;22.70;58.20;;;;;;4835467;29;20034;-74
2023/04/21 05:57:28;;;;;;;7.60;2.60;;;22.60;58.00;;;;;;4840544;29;20482;-75
2023/04/21 05:59:54;;;;;;;4.05;2.35;;;22.60;58.20;;;;;;4838918;29;20041;-75
2023/04/21 06:02:21;;;;;;;12.30;3.03;;;22.60;58.30;;;;;;4839055;29;20044;-75
2023/04/21 06:04:47;;;;;;;8.07;2.78;;;22.50;58.30;;;;;;4840696;29;20029;-75
2023/04/21 06:07:13;;;;;;;5.35;1.88;;;22.60;58.20;;;;;;4839933;29;20094;-75
2023/04/21 06:09:40;;;;;;;12.77;2.65;;;22.50;58.40;;;;;;4837600;29;20041;-75
2023/04/21 06:12:06;;;;;;;10.57;2.30;;;22.60;58.40;;;;;;4839727;29;20478;-74
2023/04/21 06:14:32;;;;;;;8.15;2.28;;;22.50;58.50;;;;;;4838929;29;20419;-70
2023/04/21 06:16:58;;;;;;;5.78;1.75;;;22.40;58.30;;;;;;4834151;29;20074;-75
2023/04/21 06:19:24;;;;;;;4.32;1.90;;;22.60;57.90;;;;;;4839972;29;20061;-76
2023/04/21 06:21:51;;;;;;;8.63;2.03;;;22.50;57.90;;;;;;4838276;29;20037;-75
2023/04/21 06:24:23;;;;;;;5.75;2.00;;;22.50;57.60;;;;;;4836792;29;20514;-75
2023/04/21 06:26:51;;;;;;;2.60;2.05;;;22.40;58.00;;;;;;4842207;29;20046;-76
2023/04/21 06:29:18;;;;;;;7.20;2.10;;;22.50;58.50;;;;;;4843550;29;20042;-76
2023/04/21 06:31:44;;;;;;;5.90;1.75;;;22.50;58.20;;;;;;4843150;29;20132;-75
2023/04/21 06:34:10;;;;;;;6.88;2.28;;;22.50;58.50;;;;;;4843844;29;20034;-76
2023/04/21 06:36:36;;;;;;;8.43;1.92;;;22.60;57.30;;;;;;4843599;29;20402;-77
2023/04/21 06:39:03;;;;;;;3.67;1.70;;;22.60;58.60;;;;;;4821738;29;20070;-75
2023/04/21 06:41:29;;;;;;;4.22;2.13;;;22.70;58.70;;;;;;4821093;29;20099;-75
2023/04/21 06:43:55;;;;;;;9.05;2.40;;;22.70;56.80;;;;;;4821592;29;20042;-75
2023/04/21 06:46:21;;;;;;;5.00;2.17;;;22.70;55.30;;;;;;4805215;29;20041;-76
2023/04/21 06:48:47;;;;;;;8.18;2.70;;;22.70;61.20;;;;;;4820780;29;20042;-75
2023/04/21 06:51:13;;;;;;;11.45;3.00;;;22.80;56.00;;;;;;4827495;29;20430;-76
2023/04/21 06:53:40;;;;;;;7.45;2.50;;;22.70;56.30;;;;;;4815927;29;20046;-77
2023/04/21 06:56:06;;;;;;;3.78;0.50;;;22.60;55.20;;;;;;4822927;29;20445;-77
2023/04/21 06:58:32;;;;;;;2.47;1.20;;;22.80;58.80;;;;;;4822405;29;20075;-76
2023/04/21 07:00:58;;;;;;;1.00;0.85;;;22.90;58.80;;;;;;4818887;29;20038;-74
2023/04/21 07:03:24;;;;;;;0.80;0.80;;;22.90;57.80;;;;;;4821339;29;20040;-75
2023/04/21 07:05:50;;;;;;;1.85;1.40;;;23.10;56.70;;;;;;4822185;29;20500;-71
2023/04/21 07:08:16;;;;;;;3.42;1.15;;;23.20;55.40;;;;;;4821360;29;20076;-71
2023/04/21 07:14:03;;;;;;;2.13;1.50;;;23.30;55.80;;;;;;5843164;23;20414;-89
2023/04/21 07:16:29;;;;;;;1.42;1.25;;;23.20;55.30;;;;;;4853903;29;20054;-73
2023/04/21 07:18:55;;;;;;;6.88;0.98;;;23.20;54.80;;;;;;4841177;29;20065;-74
2023/04/21 07:21:21;;;;;;;0.90;0.90;;;23.20;53.80;;;;;;4842333;29;20050;-72
2023/04/21 07:23:47;;;;;;;7.82;2.03;;;23.30;53.70;;;;;;4838325;29;20037;-75
2023/04/21 07:26:13;;;;;;;1.00;0.88;;;23.40;53.20;;;;;;4841596;29;20586;-72
2023/04/21 07:28:39;;;;;;;1.15;1.02;;;23.40;52.60;;;;;;4855716;29;20061;-74
2023/04/21 07:31:06;;;;;;;1.25;0.80;;;23.60;52.90;;;;;;4841077;29;20030;-77
2023/04/21 07:33:32;;;;;;;1.20;1.05;;;23.60;53.10;;;;;;4858814;29;20038;-81
2023/04/21 07:35:58;;;;;;;4.38;1.67;;;23.70;51.90;;;;;;4842620;29;20134;-81
2023/04/21 07:38:25;;;;;;;3.58;0.93;;;23.60;51.70;;;;;;4840825;29;20041;-84
2023/04/21 07:40:51;;;;;;;4.28;1.95;;;23.70;51.70;;;;;;4824757;29;20042;-77
2023/04/21 07:43:20;;;;;;;3.17;1.67;;;23.60;51.50;;;;;;4820586;29;20058;-78
2023/04/21 07:45:46;;;;;;;3.03;1.98;;;23.60;49.70;;;;;;4833980;29;20137;-80
2023/04/21 07:48:12;;;;;;;17.52;2.00;;;23.50;48.80;;;;;;4828041;29;20159;-79
2023/04/21 07:50:38;;;;;;;8.68;1.77;;;23.50;47.30;;;;;;4836732;29;20050;-79
2023/04/21 07:53:04;;;;;;;8.35;2.00;;;23.90;46.90;;;;;;4813959;29;20035;-82
2023/04/21 07:55:31;;;;;;;6.43;2.35;;;23.50;45.50;;;;;;4812341;29;20065;-78
2023/04/21 07:58:12;;;;;;;17.17;2.80;;;23.40;44.90;;;;;;4807135;29;20452;-79
2023/04/21 08:00:38;;;;;;;2.72;1.25;;;23.30;43.60;;;;;;4806326;29;20195;-77
2023/04/21 08:03:04;;;;;;;9.25;2.15;;;23.40;43.50;;;;;;4805364;29;20565;-79
2023/04/21 08:05:31;;;;;;;2.13;1.08;;;23.30;42.80;;;;;;4787991;29;20047;-78
2023/04/21 08:07:57;;;;;;;3.90;1.95;;;23.40;43.10;;;;;;4760205;29;20042;-76
2023/04/21 08:10:23;;;;;;;7.78;1.80;;;23.30;43.90;;;;;;4819579;29;20078;-78
2023/04/21 08:12:50;;;;;;;2.70;1.60;;;23.30;42.60;;;;;;4814990;29;21826;-79
2023/04/21 08:15:16;;;;;;;2.50;1.08;;;23.30;44.50;;;;;;4821669;29;20058;-78
2023/04/21 08:17:42;;;;;;;9.15;2.53;;;23.40;43.90;;;;;;4813857;29;20042;-78
2023/04/21 08:20:09;;;;;;;5.25;2.00;;;23.30;44.20;;;;;;4769008;30;20052;-78
2023/04/21 08:22:35;;;;;;;11.77;3.05;;;23.30;44.30;;;;;;4768837;30;20047;-78
2023/04/21 08:25:34;;;;;;;8.25;2.03;;;23.30;44.90;;;;;;4785226;30;20074;-78
2023/04/21 08:28:00;;;;;;;16.20;2.70;;;23.20;44.80;;;;;;4823041;29;20038;-78
2023/04/21 08:30:27;;;;;;;8.75;1.77;;;23.20;45.40;;;;;;4807320;29;21954;-78
2023/04/21 08:32:54;;;;;;;5.50;1.33;;;23.10;45.80;;;;;;4804499;29;20126;-78
2023/04/21 08:35:20;;;;;;;4.90;1.15;;;23.20;44.20;;;;;;4822021;29;20045;-76
2023/04/21 08:37:47;;;;;;;5.68;2.42;;;23.20;46.00;;;;;;4820225;29;20050;-78
2023/04/21 08:40:13;;;;;;;8.75;1.60;;;23.10;43.60;;;;;;4823402;29;20038;-78
2023/04/21 08:42:40;;;;;;;9.27;1.80;;;23.10;46.60;;;;;;4786845;30;20057;-78
2023/04/21 08:45:06;;;;;;;6.22;2.28;;;23.20;46.50;;;;;;4786762;30;20059;-78
2023/04/21 08:47:32;;;;;;;5.22;2.22;;;23.20;46.80;;;;;;4768749;30;20076;-78
2023/04/21 08:49:59;;;;;;;7.35;2.08;;;23.30;46.30;;;;;;4754421;30;20096;-78
2023/04/21 08:52:25;;;;;;;5.38;1.55;;;23.20;46.20;;;;;;4777068;30;20055;-79
2023/04/21 08:54:52;;;;;;;4.82;1.30;;;23.30;46.90;;;;;;4786604;29;20103;-78
2023/04/21 08:57:18;;;;;;;3.85;1.63;;;23.20;46.50;;;;;;4804847;29;20055;-78
2023/04/21 08:59:45;;;;;;;1.35;0.88;;;23.20;46.60;;;;;;4798338;29;20036;-78
2023/04/21 09:02:14;;;;;;;10.63;2.05;;;23.20;47.20;;;;;;4786989;29;20140;-78
2023/04/21 09:05:20;;;;;;;0.82;0.60;;;23.40;45.90;;;;;;4804823;29;20440;-79
2023/04/21 09:07:46;;;;;;;8.00;2.03;;;23.40;45.80;;;;;;4801032;29;20465;-78
2023/04/21 09:10:12;;;;;;;6.45;1.50;;;23.30;45.90;;;;;;4796033;29;20039;-78
2023/04/21 09:12:39;;;;;;;3.90;1.65;;;23.40;45.80;;;;;;4789656;29;20054;-78
2023/04/21 09:15:09;;;;;;;7.38;1.80;;;23.30;46.80;;;;;;4841684;29;20061;-78
2023/04/21 09:17:35;;;;;;;4.20;2.17;;;23.20;48.10;;;;;;4832829;29;20478;-78
2023/04/21 09:20:17;;;;;;;6.50;1.40;;;23.30;48.30;;;;;;4843849;29;20034;-78
2023/04/21 09:22:43;;;;;;;5.00;1.60;;;23.30;47.00;;;;;;4837384;29;20037;-78
2023/04/21 09:25:14;;;;;;;7.35;1.90;;;23.30;48.00;;;;;;4836765;29;20030;-78
2023/04/21 09:27:40;;;;;;;5.70;2.08;;;23.30;48.40;;;;;;4832523;29;20030;-78
2023/04/21 09:30:07;;;;;;;9.75;1.88;;;23.20;48.40;;;;;;4841681;29;20045;-78
2023/04/21 09:32:40;;;;;;;11.02;2.20;;;23.40;48.80;;;;;;4842743;29;20039;-78
2023/04/21 09:35:10;;;;;;;2.28;1.50;;;23.40;48.50;;;;;;4829193;29;20043;-78
2023/04/21 09:37:38;;;;;;;6.20;1.27;;;23.30;48.90;;;;;;4840072;29;20034;-78
2023/04/21 09:40:04;;;;;;;11.98;2.28;;;23.40;48.10;;;;;;4842678;29;20112;-78
2023/04/21 09:42:32;;;;;;;9.05;2.28;;;23.40;48.80;;;;;;4842347;29;20086;-78
2023/04/21 09:44:58;;;;;;;17.30;1.98;;;23.40;49.20;;;;;;4833487;29;20045;-78
2023/04/21 09:47:27;;;;;;;1.92;1.27;;;23.40;48.80;;;;;;4837648;29;20120;-78
2023/04/21 09:49:55;;;;;;;7.13;1.70;;;23.50;49.20;;;;;;4842797;29;20022;-78
2023/04/21 09:52:22;;;;;;;5.45;2.53;;;23.40;48.80;;;;;;4841507;29;20046;-78
2023/04/21 09:54:50;;;;;;;7.93;2.03;;;23.40;49.10;;;;;;4836003;29;20049;-78
2023/04/21 09:57:23;;;;;;;3.17;1.70;;;23.60;49.30;;;;;;4824826;29;20549;-78
2023/04/21 10:00:04;;;;;;;9.02;2.13;;;23.50;49.20;;;;;;4837312;29;20492;-78
2023/04/21 10:02:34;;;;;;;10.85;1.67;;;23.50;48.90;;;;;;4837081;29;20048;-77
2023/04/21 10:05:01;;;;;;;7.35;2.33;;;23.40;49.40;;;;;;4842200;29;20030;-76
2023/04/21 10:07:28;;;;;;;11.88;3.10;;;23.60;50.30;;;;;;4840485;29;20115;-80
2023/04/21 10:09:55;;;;;;;5.65;2.17;;;24.00;49.50;;;;;;4826291;29;20030;-86
2023/04/21 10:12:23;;;;;;;7.15;1.65;;;24.20;50.90;;;;;;4832330;29;20395;-84
2023/04/21 10:14:51;;;;;;;5.97;2.53;;;24.30;51.10;;;;;;4835083;29;20050;-85
2023/04/21 10:17:20;;;;;;;11.23;2.72;;;24.30;51.10;;;;;;4841533;29;20042;-85
2023/04/21 10:19:56;;;;;;;6.72;3.03;;;24.40;50.80;;;;;;4824931;29;20053;-83
2023/04/21 10:22:32;;;;;;;4.85;1.88;;;24.40;52.00;;;;;;4822253;29;20126;-84
2023/04/21 10:25:01;;;;;;;4.55;2.28;;;24.40;50.00;;;;;;4786086;29;20046;-84
2023/04/21 10:27:35;;;;;;;5.22;1.83;;;24.40;49.50;;;;;;4824258;29;20080;-84
2023/04/21 10:30:24;;;;;;;9.15;2.53;;;24.30;48.00;;;;;;4839477;29;20061;-84
2023/04/21 10:37:36;;;;;;;5.28;2.70;;;24.40;46.90;;;;;;4833779;29;20112;-84
2023/04/21 10:40:08;;;;;;;4.63;1.80;;;24.50;46.00;;;;;;4791781;29;20039;-85
2023/04/21 10:42:35;;;;;;;7.33;2.53;;;24.50;45.60;;;;;;4809094;29;20043;-85
2023/04/21 10:45:07;;;;;;;7.60;2.20;;;24.40;45.30;;;;;;4809419;29;20300;-86
2023/04/21 10:47:37;;;;;;;8.45;2.33;;;24.60;47.00;;;;;;4821589;29;20050;-79
2023/04/21 10:50:18;;;;;;;5.80;2.13;;;24.40;47.30;;;;;;4807877;29;20111;-82
2023/04/21 10:52:53;;;;;;;8.95;2.05;;;24.40;48.80;;;;;;4834625;29;20477;-81
2023/04/21 10:55:20;;;;;;;7.60;2.17;;;24.40;48.40;;;;;;4821372;29;20122;-76
2023/04/21 10:57:47;;;;;;;7.00;2.25;;;24.50;49.60;;;;;;4820432;29;20083;-74
2023/04/21 11:00:19;;;;;;;11.93;2.85;;;24.80;50.70;;;;;;4819351;29;20069;-74
2023/04/21 11:02:54;;;;;;;7.38;2.75;;;24.80;51.40;;;;;;4806985;29;20550;-75
2023/04/21 11:05:27;;;;;;;4.15;1.75;;;24.80;49.20;;;;;;4816039;29;20114;-75
2023/04/21 11:08:02;;;;;;;5.45;1.92;;;24.80;49.10;;;;;;4823061;29;20040;-74
2023/04/21 11:10:28;;;;;;;7.35;2.22;;;24.60;48.60;;;;;;4822896;29;20144;-76
2023/04/21 11:12:56;;;;;;;6.85;1.90;;;24.70;47.50;;;;;;4825569;29;20103;-73
2023/04/21 11:15:23;;;;;;;12.93;2.05;;;24.70;48.00;;;;;;4820742;29;20066;-82
2023/04/21 11:17:49;;;;;;;11.73;2.53;;;24.50;47.20;;;;;;4817984;29;20054;-85
2023/04/21 11:20:15;;;;;;;6.50;1.98;;;24.50;47.60;;;;;;4825500;29;20050;-87
2023/04/21 11:22:41;;;;;;;2.10;1.73;;;24.50;49.10;;;;;;4825105;29;20058;-85
2023/04/21 11:25:17;;;;;;;9.02;1.73;;;24.40;48.30;;;;;;4824204;29;20554;-83
2023/04/21 11:27:52;;;;;;;8.18;2.00;;;24.50;49.90;;;;;;4820187;29;20110;-82
2023/04/21 11:30:19;;;;;;;6.47;2.08;;;24.50;49.90;;;;;;4823794;29;20479;-79
2023/04/21 11:32:45;;;;;;;7.90;2.30;;;24.50;48.80;;;;;;4800730;29;20038;-72
2023/04/21 11:35:11;;;;;;;4.28;2.10;;;24.50;48.70;;;;;;4818890;29;20062;-73
2023/04/21 11:37:38;;;;;;;6.05;1.85;;;24.40;45.50;;;;;;4816031;29;20478;-73
2023/04/21 11:40:06;;;;;;;6.65;1.90;;;24.40;46.50;;;;;;4821953;29;20399;-77
2023/04/21 11:42:33;;;;;;;4.00;2.05;;;24.50;47.30;;;;;;4816412;29;20042;-75
2023/04/21 11:45:00;;;;;;;8.88;2.38;;;24.50;46.70;;;;;;4805810;29;20066;-76
2023/04/21 11:47:27;;;;;;;6.60;1.88;;;24.50;49.70;;;;;;4807124;29;20048;-75
2023/04/21 11:49:55;;;;;;;6.53;2.60;;;24.40;49.50;;;;;;4831685;29;20034;-72
2023/04/21 11:52:38;;;;;;;8.27;1.90;;;24.50;48.40;;;;;;4818812;29;20043;-74
2023/04/21 11:55:11;;;;;;;5.93;1.67;;;24.50;49.90;;;;;;4822777;29;20046;-74
2023/04/21 11:57:39;;;;;;;7.97;2.10;;;24.30;47.90;;;;;;4830989;29;20503;-73
2023/04/21 12:00:12;;;;;;;8.50;2.00;;;24.40;49.70;;;;;;4824606;29;20694;-74
2023/04/21 12:02:38;;;;;;;7.65;2.10;;;24.40;49.10;;;;;;4821956;29;20059;-73
2023/04/21 12:05:11;;;;;;;8.43;2.15;;;24.30;49.40;;;;;;4822280;29;20054;-73
2023/04/21 12:07:41;;;;;;;11.32;2.70;;;24.40;46.80;;;;;;4825759;29;20058;-72
2023/04/21 12:10:13;;;;;;;4.63;1.98;;;24.30;47.10;;;;;;4829046;29;20037;-74
2023/04/21 12:12:41;;;;;;;5.05;1.90;;;24.30;46.90;;;;;;4807298;29;20714;-74
2023/04/21 12:15:09;;;;;;;7.10;1.98;;;24.10;48.30;;;;;;4825615;29;20588;-73
2023/04/21 12:17:49;;;;;;;9.30;2.67;;;24.20;50.00;;;;;;4826564;29;20042;-74
2023/04/21 12:20:17;;;;;;;6.57;2.20;;;24.10;49.00;;;;;;4825113;29;20042;-76
2023/04/21 12:22:44;;;;;;;7.90;2.15;;;24.20;50.80;;;;;;4820363;29;20077;-76
2023/04/21 12:25:10;;;;;;;9.30;2.85;;;24.30;51.50;;;;;;4816778;29;20052;-75
2023/04/21 12:27:36;;;;;;;5.50;1.85;;;24.10;52.00;;;;;;4819289;29;20034;-75
2023/04/21 12:30:03;;;;;;;8.50;2.55;;;24.20;51.90;;;;;;4804240;29;20046;-74
2023/04/21 12:32:30;;;;;;;4.85;1.75;;;24.20;51.30;;;;;;4822227;29;20047;-73
2023/04/21 12:34:56;;;;;;;9.00;2.58;;;24.20;51.40;;;;;;4819405;29;20030;-73
2023/04/21 12:37:22;;;;;;;9.40;2.67;;;24.10;51.70;;;;;;4817735;29;20372;-75
2023/04/21 12:39:48;;;;;;;4.53;2.53;;;24.00;51.90;;;;;;4822325;29;20476;-74
2023/04/21 12:42:14;;;;;;;10.75;2.45;;;24.20;51.60;;;;;;4821400;29;20117;-74
2023/04/21 12:44:40;;;;;;;9.45;2.25;;;24.10;51.40;;;;;;4823642;29;20030;-74
2023/04/21 12:47:06;;;;;;;6.22;2.25;;;24.10;51.90;;;;;;4821652;29;20463;-74
2023/04/21 12:49:32;;;;;;;7.72;2.55;;;24.00;51.10;;;;;;4821255;29;20045;-74
2023/04/21 12:51:59;;;;;;;9.82;2.35;;;24.00;51.60;;;;;;4838678;29;20038;-74
2023/04/21 12:54:24;;;;;;;8.60;2.05;;;24.00;51.60;;;;;;4808275;29;20038;-74